^^
Saratoga-Weather Station Historical Data
Daily Summary for September 29, 2022 Units:  Metric    English   Both
Daily Weekly Monthly Yearly Custom
  High: Low: Average:
Temperature: 13.4 °C 5.9 °C 8.8 °C
Dew Point: 11 °C 5.2 °C 7.5 °C
Humidity: 96% 75% 92%
Wind Speed: 6.4km/h 0km/h 0.5km/h
Wind Gust: 9.7km/h - -
Wind- - SE
Pressure: 1006.8 hPa 999.3 hPa -
Precipitation: 3.8 mm    
Historical Graphs
 
 
Tabular Data for September 29, 2022
Time Temperature Dew Point Pressure Wind Wind Speed Wind Gust Humidity Rainfall Rate (Hourly) solar
00:03 6.4 °C 5.4 °C 1000.0 hPa Calm     93% 0.0 mm 0 W/m2
00:08 6.4 °C 5.4 °C 1000.0 hPa Calm     93% 0.0 mm 0 W/m2
00:13 6.4 °C 5.4 °C 1000.0 hPa Calm     93% 0.0 mm 0 W/m2
00:18 6.4 °C 5.4 °C 1000.0 hPa Calm     93% 0.0 mm 0 W/m2
00:23 6.4 °C 5.4 °C 1000.0 hPa Calm   1.6 km/h 93% 0.0 mm 0 W/m2
00:28 6.4 °C 5.4 °C 1000.0 hPa Calm   1.6 km/h 93% 0.0 mm 0 W/m2
00:33 6.5 °C 5.4 °C 1000.0 hPa Calm     93% 0.0 mm 0 W/m2
00:38 6.6 °C 5.5 °C 1000.0 hPa Calm   1.6 km/h 93% 0.0 mm 0 W/m2
00:43 6.6 °C 5.5 °C 1000.0 hPa Calm     93% 0.0 mm 0 W/m2
00:48 6.6 °C 5.5 °C 1000.0 hPa Calm     93% 0.0 mm 0 W/m2
00:53 6.6 °C 5.5 °C 1000.0 hPa Calm     93% 0.0 mm 0 W/m2
00:58 6.6 °C 5.5 °C 1000.0 hPa Calm     93% 0.0 mm 0 W/m2
01:03 6.7 °C 5.6 °C 1000.0 hPa Calm     93% 0.0 mm 0 W/m2
01:08 6.7 °C 5.6 °C 1000.0 hPa Calm     93% 0.0 mm 0 W/m2
01:13 6.7 °C 5.6 °C 1000.0 hPa Calm     93% 0.0 mm 0 W/m2
01:18 6.7 °C 5.6 °C 1000.0 hPa Calm     93% 0.0 mm 0 W/m2
01:23 6.7 °C 5.6 °C 1000.0 hPa Calm     93% 0.0 mm 0 W/m2
01:28 6.8 °C 5.7 °C 1000.0 hPa WSW 1.4 km/h 4.8 km/h 93% 0.0 mm 0 W/m2
01:33 6.9 °C 6 °C 1000.0 hPa WSW 1.4 km/h 4.8 km/h 94% 0.0 mm 0 W/m2
01:38 7.2 °C 6.3 °C 1000.0 hPa WNW 1.4 km/h 1.6 km/h 94% 0.0 mm 0 W/m2
01:43 7.2 °C 6.1 °C 1000.0 hPa Calm   4.8 km/h 93% 0.0 mm 0 W/m2
01:48 7.2 °C 6.1 °C 1000.0 hPa Calm   1.6 km/h 93% 0.0 mm 0 W/m2
01:53 7.2 °C 6.1 °C 999.7 hPa Calm     93% 0.0 mm 0 W/m2
01:58 7.2 °C 6.1 °C 999.7 hPa Calm   1.6 km/h 93% 0.0 mm 0 W/m2
02:03 7.2 °C 6.1 °C 999.7 hPa Calm     93% 0.0 mm 0 W/m2
02:08 7.2 °C 6.1 °C 999.7 hPa Calm   1.6 km/h 93% 0.0 mm 0 W/m2
02:13 7.3 °C 6.2 °C 999.7 hPa Calm     93% 0.0 mm 0 W/m2
02:18 7.3 °C 6.2 °C 999.7 hPa Calm     93% 0.0 mm 0 W/m2
02:23 7.3 °C 6.2 °C 999.7 hPa Calm     93% 0.0 mm 0 W/m2
02:28 7.3 °C 6.2 °C 999.7 hPa Calm     93% 0.0 mm 0 W/m2
02:33 7.4 °C 6.3 °C 999.7 hPa Calm     93% 0.0 mm 0 W/m2
02:38 7.4 °C 6.3 °C 999.7 hPa Calm     93% 0.0 mm 0 W/m2
02:43 7.4 °C 6.3 °C 999.7 hPa Calm     93% 0.0 mm 0 W/m2
02:48 7.4 °C 6.3 °C 999.7 hPa Calm     93% 0.0 mm 0 W/m2
02:53 7.4 °C 6.3 °C 1000.0 hPa Calm     93% 0.0 mm 0 W/m2
02:58 7.4 °C 6.3 °C 1000.0 hPa Calm   1.6 km/h 93% 0.0 mm 0 W/m2
03:03 7.4 °C 6.3 °C 999.7 hPa Calm     93% 0.0 mm 0 W/m2
03:08 7.4 °C 6.3 °C 999.7 hPa Calm     93% 0.0 mm 0 W/m2
03:13 7.3 °C 6.2 °C 999.7 hPa Calm   1.6 km/h 93% 0.0 mm 0 W/m2
03:18 7.3 °C 6.2 °C 999.7 hPa Calm     93% 0.0 mm 0 W/m2
03:23 7.2 °C 6.1 °C 999.7 hPa Calm     93% 0.0 mm 0 W/m2
03:28 7.1 °C 6 °C 999.7 hPa Calm   1.6 km/h 93% 0.0 mm 0 W/m2
03:33 7.1 °C 6 °C 999.7 hPa Calm     93% 0.0 mm 0 W/m2
03:38 7.2 °C 6.1 °C 999.7 hPa Calm     93% 0.0 mm 0 W/m2
03:43 7.2 °C 6.3 °C 999.7 hPa Calm   3.2 km/h 94% 0.0 mm 0 W/m2
03:48 7.2 °C 6.3 °C 999.7 hPa Calm   1.6 km/h 94% 0.0 mm 0 W/m2
03:53 7.2 °C 6.3 °C 999.7 hPa Calm   3.2 km/h 94% 0.0 mm 0 W/m2
03:58 7.1 °C 6.2 °C 999.7 hPa Calm     94% 0.0 mm 0 W/m2
04:03 7.1 °C 6.2 °C 999.7 hPa Calm     94% 0.0 mm 0 W/m2
04:08 7.1 °C 6.2 °C 999.7 hPa Calm     94% 0.0 mm 0 W/m2
04:13 7 °C 6.1 °C 999.3 hPa Calm     94% 0.0 mm 0 W/m2
04:18 7 °C 6.1 °C 999.3 hPa Calm     94% 0.0 mm 0 W/m2
04:23 7 °C 6.1 °C 999.3 hPa Calm     94% 0.0 mm 0 W/m2
04:28 7 °C 6.1 °C 999.3 hPa Calm     94% 0.0 mm 0 W/m2
04:33 7 °C 6.1 °C 999.7 hPa Calm     94% 0.0 mm 0 W/m2
04:39 7.1 °C 6.2 °C 999.3 hPa WNW 3.2 km/h 3.2 km/h 94% 0.0 mm 0 W/m2
04:44 7.1 °C 6.2 °C 999.3 hPa Calm     94% 0.0 mm 0 W/m2
04:49 7.1 °C 6.2 °C 999.3 hPa Calm     94% 0.0 mm 0 W/m2
04:54 7.1 °C 6.4 °C 999.3 hPa Calm     95% 0.0 mm 0 W/m2
04:59 7.2 °C 6.3 °C 999.3 hPa Calm     94% 0.0 mm 0 W/m2
05:04 7.2 °C 6.3 °C 999.3 hPa Calm     94% 0.0 mm 0 W/m2
05:09 7.2 °C 6.3 °C 999.3 hPa Calm     94% 0.0 mm 0 W/m2
05:14 7.2 °C 6.5 °C 999.3 hPa Calm     95% 0.0 mm 0 W/m2
05:19 7.2 °C 6.5 °C 999.3 hPa WNW 1.4 km/h 3.2 km/h 95% 0.0 mm 0 W/m2
05:24 7.2 °C 6.5 °C 999.3 hPa WNW 3.2 km/h 3.2 km/h 95% 0.0 mm 0 W/m2
05:29 7.2 °C 6.5 °C 999.3 hPa Calm   1.6 km/h 95% 0.0 mm 0 W/m2
05:34 7.2 °C 6.5 °C 999.7 hPa Calm   1.6 km/h 95% 0.0 mm 0 W/m2
05:39 7.2 °C 6.3 °C 999.7 hPa Calm     94% 0.0 mm 0 W/m2
05:44 7.2 °C 6.3 °C 999.7 hPa Calm   1.6 km/h 94% 0.0 mm 0 W/m2
05:49 7.2 °C 6.5 °C 999.7 hPa Calm   1.6 km/h 95% 0.0 mm 0 W/m2
05:54 7.2 °C 6.5 °C 999.7 hPa Calm     95% 0.0 mm 0 W/m2
05:59 7.2 °C 6.5 °C 999.7 hPa Calm     95% 0.0 mm 0 W/m2
06:04 7.2 °C 6.5 °C 999.7 hPa WNW 1.4 km/h 1.6 km/h 95% 0.0 mm 0 W/m2
06:09 7.2 °C 6.5 °C 999.7 hPa WNW 1.4 km/h 1.6 km/h 95% 0.0 mm 0 W/m2
06:14 7.3 °C 6.6 °C 999.7 hPa Calm     95% 0.0 mm 0 W/m2
06:19 7.3 °C 6.6 °C 999.7 hPa Calm     95% 0.0 mm 0 W/m2
06:24 7.3 °C 6.6 °C 999.7 hPa Calm     95% 0.0 mm 0 W/m2
06:29 7.2 °C 6.5 °C 1000.0 hPa Calm     95% 0.0 mm 0 W/m2
06:34 7.2 °C 6.5 °C 1000.0 hPa WNW 1.4 km/h 1.6 km/h 95% 0.0 mm 0 W/m2
06:39 7.2 °C 6.5 °C 1000.0 hPa Calm     95% 0.0 mm 0 W/m2
06:44 7.2 °C 6.5 °C 1000.0 hPa Calm     95% 0.0 mm 0 W/m2
06:49 7.2 °C 6.5 °C 1000.0 hPa Calm     95% 0.0 mm 0 W/m2
06:54 7.2 °C 6.5 °C 1000.0 hPa Calm     95% 0.0 mm 0 W/m2
06:59 7.2 °C 6.5 °C 1000.0 hPa Calm     95% 0.0 mm 0 W/m2
07:04 7.3 °C 6.6 °C 1000.0 hPa Calm     95% 0.0 mm 0 W/m2
07:09 7.3 °C 6.6 °C 1000.0 hPa Calm     95% 0.0 mm 0 W/m2
07:14 7.3 °C 6.6 °C 1000.0 hPa Calm     95% 0.0 mm 0 W/m2
07:19 7.3 °C 6.6 °C 1000.0 hPa Calm     95% 0.0 mm 0 W/m2
07:24 7.3 °C 6.6 °C 1000.0 hPa Calm     95% 0.5 mm 0 W/m2
07:29 7.3 °C 6.6 °C 1000.0 hPa Calm     95% 1.0 mm 0 W/m2
07:34 7.3 °C 6.6 °C 1000.0 hPa Calm   3.2 km/h 95% 1.0 mm 0 W/m2
07:39 7.3 °C 6.6 °C 1000.3 hPa Calm     95% 1.0 mm 0 W/m2
07:44 7.3 °C 6.6 °C 1000.3 hPa Calm   3.2 km/h 95% 1.0 mm 7 W/m2
07:49 7.3 °C 6.6 °C 1000.3 hPa Calm     95% 1.0 mm 7 W/m2
07:54 7.3 °C 6.6 °C 1000.3 hPa Calm     95% 1.0 mm 7 W/m2
07:59 7.3 °C 6.6 °C 1000.3 hPa Calm     95% 1.0 mm 9 W/m2
08:04 7.3 °C 6.6 °C 1000.3 hPa Calm     95% 1.0 mm 12 W/m2
08:09 7.3 °C 6.6 °C 1000.3 hPa Calm     95% 1.0 mm 11 W/m2
08:14 7.4 °C 6.7 °C 1000.3 hPa Calm     95% 1.0 mm 12 W/m2
08:19 7.4 °C 6.7 °C 1000.3 hPa NE 1.4 km/h 3.2 km/h 95% 1.0 mm 18 W/m2
08:24 7.4 °C 6.7 °C 1000.3 hPa NE 3.2 km/h 3.2 km/h 95% 0.5 mm 25 W/m2
08:29 7.5 °C 6.8 °C 1000.3 hPa Calm     95% 0.0 mm 32 W/m2
08:34 7.5 °C 6.8 °C 1000.3 hPa Calm   1.6 km/h 95% 0.0 mm 33 W/m2
08:39 7.6 °C 6.9 °C 1000.3 hPa Calm   1.6 km/h 95% 0.0 mm 40 W/m2
08:44 7.6 °C 6.9 °C 1000.3 hPa Calm   3.2 km/h 95% 0.2 mm 44 W/m2
08:49 7.7 °C 6.9 °C 1000.3 hPa Calm     95% 0.2 mm 44 W/m2
08:54 7.7 °C 6.9 °C 1000.3 hPa NNW 3.2 km/h 3.2 km/h 95% 0.2 mm 35 W/m2
08:59 7.7 °C 6.9 °C 1000.3 hPa NNW 1.4 km/h 1.6 km/h 95% 0.2 mm 37 W/m2
09:04 7.7 °C 6.9 °C 1000.3 hPa NNW 1.4 km/h 3.2 km/h 95% 0.2 mm 47 W/m2
09:09 7.7 °C 6.9 °C 1000.3 hPa Calm     95% 0.2 mm 63 W/m2
09:14 7.7 °C 6.9 °C 1000.3 hPa Calm     95% 0.2 mm 49 W/m2
09:19 7.7 °C 6.9 °C 1000.7 hPa Calm     95% 0.2 mm 60 W/m2
09:24 7.8 °C 7 °C 1000.7 hPa Calm     95% 0.2 mm 47 W/m2
09:29 7.8 °C 7 °C 1000.7 hPa Calm   1.6 km/h 95% 0.2 mm 46 W/m2
09:34 7.9 °C 7.3 °C 1000.7 hPa Calm     96% 0.2 mm 54 W/m2
09:39 7.9 °C 7.1 °C 1000.7 hPa Calm   1.6 km/h 95% 0.2 mm 53 W/m2
09:44 7.9 °C 7.1 °C 1000.7 hPa Calm     95% 0.0 mm 42 W/m2
09:49 7.9 °C 7.1 °C 1000.7 hPa Calm     95% 0.0 mm 54 W/m2
09:54 7.9 °C 7.1 °C 1000.7 hPa Calm     95% 0.0 mm 65 W/m2
09:59 8.1 °C 7.3 °C 1000.7 hPa North 1.4 km/h 1.6 km/h 95% 0.0 mm 88 W/m2
10:04 8.1 °C 7.5 °C 1001.0 hPa North 1.4 km/h 1.6 km/h 96% 0.0 mm 102 W/m2
10:09 8.2 °C 7.4 °C 1001.0 hPa Calm   1.6 km/h 95% 0.0 mm 104 W/m2
10:14 8.2 °C 7.4 °C 1001.0 hPa Calm     95% 0.0 mm 93 W/m2
10:19 8.3 °C 7.5 °C 1001.0 hPa Calm   3.2 km/h 95% 0.0 mm 109 W/m2
10:24 8.3 °C 7.5 °C 1001.0 hPa Calm   3.2 km/h 95% 0.0 mm 111 W/m2
10:29 8.3 °C 7.5 °C 1001.4 hPa North 3.2 km/h 3.2 km/h 95% 0.0 mm 91 W/m2
10:34 8.3 °C 7.5 °C 1001.4 hPa Calm   1.6 km/h 95% 0.0 mm 90 W/m2
10:39 8.4 °C 7.6 °C 1001.4 hPa Calm   1.6 km/h 95% 0.0 mm 116 W/m2
10:44 8.6 °C 7.8 °C 1001.4 hPa Calm   1.6 km/h 95% 0.0 mm 123 W/m2
10:49 8.7 °C 7.9 °C 1001.4 hPa Calm   1.6 km/h 95% 0.0 mm 125 W/m2
10:54 8.7 °C 7.9 °C 1001.4 hPa East 1.4 km/h 3.2 km/h 95% 0.0 mm 135 W/m2
10:59 8.7 °C 7.9 °C 1001.4 hPa East 3.2 km/h 3.2 km/h 95% 0.0 mm 178 W/m2
11:04 8.8 °C 8 °C 1001.4 hPa East 1.4 km/h 1.6 km/h 95% 0.0 mm 160 W/m2
11:09 9 °C 8.2 °C 1001.4 hPa Calm   1.6 km/h 95% 0.0 mm 179 W/m2
11:14 9.2 °C 8.4 °C 1001.7 hPa Calm   1.6 km/h 95% 0.0 mm 281 W/m2
11:19 9.3 °C 8.4 °C 1001.7 hPa NE 3.2 km/h 4.8 km/h 94% 0.0 mm 199 W/m2
11:24 9.4 °C 8.5 °C 1001.7 hPa North 1.4 km/h 3.2 km/h 94% 0.0 mm 178 W/m2
11:29 9.6 °C 8.5 °C 1001.7 hPa Calm   4.8 km/h 93% 0.0 mm 165 W/m2
11:35 9.6 °C 8.5 °C 1001.7 hPa NE 3.2 km/h 3.2 km/h 93% 0.0 mm 197 W/m2
11:40 9.8 °C 8.6 °C 1001.7 hPa Calm   4.8 km/h 92% 0.0 mm 183 W/m2
11:45 9.9 °C 8.7 °C 1001.7 hPa ENE 4.7 km/h 4.8 km/h 92% 0.0 mm 172 W/m2
11:50 10 °C 8.6 °C 1001.7 hPa ESE 1.4 km/h 3.2 km/h 91% 0.0 mm 155 W/m2
11:55 10.1 °C 8.5 °C 1001.7 hPa NE 1.4 km/h 4.8 km/h 90% 0.0 mm 193 W/m2
12:00 10.3 °C 8.7 °C 1001.7 hPa Calm   3.2 km/h 90% 0.0 mm 206 W/m2
12:05 10.4 °C 8.8 °C 1001.7 hPa Calm   1.6 km/h 90% 0.0 mm 209 W/m2
12:10 10.6 °C 8.9 °C 1001.7 hPa Calm   3.2 km/h 89% 0.0 mm 202 W/m2
12:15 10.7 °C 9 °C 1001.7 hPa ESE 6.4 km/h 6.4 km/h 89% 0.0 mm 234 W/m2
12:20 10.9 °C 9.2 °C 1001.7 hPa ESE 1.4 km/h 4.8 km/h 89% 0.0 mm 540 W/m2
12:25 11.1 °C 9.2 °C 1001.7 hPa ENE 3.2 km/h 4.8 km/h 88% 0.0 mm 550 W/m2
12:30 11.4 °C 9.5 °C 1001.7 hPa East 3.2 km/h 6.4 km/h 88% 0.0 mm 341 W/m2
12:35 11.7 °C 9.6 °C 1001.7 hPa East 1.4 km/h 1.6 km/h 87% 0.0 mm 239 W/m2
12:40 11.8 °C 9.4 °C 1001.7 hPa ENE 6.4 km/h 8 km/h 85% 0.0 mm 726 W/m2
12:45 12.1 °C 9.7 °C 1001.7 hPa East 3.2 km/h 6.4 km/h 85% 0.0 mm 722 W/m2
12:50 12.4 °C 9.9 °C 1001.7 hPa Calm   9.7 km/h 85% 0.0 mm 737 W/m2
12:55 12.6 °C 9.6 °C 1001.7 hPa ESE 3.2 km/h 9.7 km/h 82% 0.0 mm 476 W/m2
13:00 12.4 °C 9.4 °C 1001.7 hPa East 1.4 km/h 9.7 km/h 82% 0.0 mm 301 W/m2
13:05 12.3 °C 9.5 °C 1001.7 hPa East 3.2 km/h 6.4 km/h 83% 0.0 mm 362 W/m2
13:10 12.3 °C 9.5 °C 1001.7 hPa ENE 4.7 km/h 9.7 km/h 83% 0.0 mm 775 W/m2
13:15 12.6 °C 9.8 °C 1001.7 hPa WSW 3.2 km/h 4.8 km/h 83% 0.0 mm 640 W/m2
13:20 12.8 °C 10 °C 1001.7 hPa ESE 3.2 km/h 9.7 km/h 83% 0.0 mm 745 W/m2
13:25 13 °C 9.8 °C 1001.7 hPa East 3.2 km/h 6.4 km/h 81% 0.0 mm 619 W/m2
13:30 13.1 °C 9.9 °C 1001.7 hPa ESE 1.4 km/h 8 km/h 81% 0.0 mm 211 W/m2
13:35 13.2 °C 10 °C 1001.7 hPa East 4.7 km/h 9.7 km/h 81% 0.0 mm 707 W/m2
13:40 13.2 °C 10 °C 1001.7 hPa ENE 1.4 km/h 4.8 km/h 81% 0.0 mm 693 W/m2
13:45 13.2 °C 9.6 °C 1001.7 hPa East 3.2 km/h 3.2 km/h 79% 0.0 mm 687 W/m2
13:50 13.3 °C 9.7 °C 1001.7 hPa ENE 1.4 km/h 6.4 km/h 79% 0.0 mm 686 W/m2
13:55 13.4 °C 9.6 °C 1001.7 hPa East 3.2 km/h 4.8 km/h 78% 0.0 mm 121 W/m2
14:00 13.4 °C 9.6 °C 1001.7 hPa Calm   3.2 km/h 78% 0.0 mm 668 W/m2
14:05 13.4 °C 9.4 °C 1001.7 hPa East 6.4 km/h 6.4 km/h 77% 0.0 mm 153 W/m2
14:10 13.3 °C 9 °C 1001.7 hPa Calm   1.6 km/h 75% 0.0 mm 176 W/m2
14:15 13.3 °C 9.4 °C 1001.7 hPa ESE 3.2 km/h 6.4 km/h 77% 0.0 mm 134 W/m2
14:20 13.3 °C 9.4 °C 1001.7 hPa ENE 1.4 km/h 3.2 km/h 77% 0.0 mm 125 W/m2
14:25 13.2 °C 9.4 °C 1001.7 hPa Calm   1.6 km/h 78% 0.0 mm 134 W/m2
14:30 13.3 °C 9.5 °C 1001.7 hPa NNE 1.4 km/h 4.8 km/h 78% 0.0 mm 118 W/m2
14:35 13.2 °C 9.1 °C 1001.7 hPa Calm   3.2 km/h 76% 0.0 mm 113 W/m2
14:40 13.1 °C 9.2 °C 1001.7 hPa Calm   1.6 km/h 77% 0.0 mm 114 W/m2
14:45 13.2 °C 9.3 °C 1001.7 hPa ENE 1.4 km/h 1.6 km/h 77% 0.0 mm 104 W/m2
14:50 13.2 °C 9.8 °C 1001.7 hPa Calm   1.6 km/h 80% 0.0 mm 109 W/m2
14:55 13.1 °C 10.3 °C 1001.7 hPa ENE 1.4 km/h 4.8 km/h 83% 0.8 mm 135 W/m2
15:00 12.8 °C 10 °C 1001.7 hPa ENE 1.4 km/h 1.6 km/h 83% 1.5 mm 162 W/m2
15:05 12.6 °C 10.1 °C 1001.7 hPa Calm   1.6 km/h 85% 1.5 mm 163 W/m2
15:10 12.3 °C 10 °C 1001.7 hPa Calm   1.6 km/h 86% 1.5 mm 137 W/m2
15:15 12.3 °C 10.2 °C 1001.7 hPa Calm     87% 1.5 mm 123 W/m2
15:20 12.3 °C 10.4 °C 1001.7 hPa Calm   1.6 km/h 88% 1.5 mm 149 W/m2
15:25 12.3 °C 10.5 °C 1001.7 hPa Calm     89% 1.5 mm 134 W/m2
15:30 12.3 °C 10.5 °C 1001.7 hPa Calm   1.6 km/h 89% 1.5 mm 114 W/m2
15:35 12.1 °C 10.3 °C 1002.0 hPa ENE 1.4 km/h 1.6 km/h 89% 1.5 mm 132 W/m2
15:40 11.9 °C 10.1 °C 1002.0 hPa Calm     89% 1.5 mm 149 W/m2
15:45 11.8 °C 10.2 °C 1002.0 hPa Calm   1.6 km/h 90% 1.5 mm 148 W/m2
15:50 11.8 °C 10.2 °C 1002.0 hPa ENE 1.4 km/h 1.6 km/h 90% 1.5 mm 151 W/m2
15:55 11.8 °C 10.4 °C 1002.0 hPa Calm     91% 0.5 mm 104 W/m2
16:00 11.8 °C 10.4 °C 1002.0 hPa Calm     91% 0.0 mm 111 W/m2
16:05 11.8 °C 10.4 °C 1002.0 hPa Calm     91% 0.0 mm 141 W/m2
16:10 11.9 °C 10.6 °C 1002.0 hPa Calm     92% 0.0 mm 250 W/m2
16:15 12 °C 10.7 °C 1002.0 hPa Calm     92% 0.0 mm 146 W/m2
16:20 12.1 °C 10.8 °C 1002.0 hPa Calm     92% 0.0 mm 153 W/m2
16:25 12.3 °C 11 °C 1002.0 hPa Calm     92% 0.0 mm 381 W/m2
16:30 12.4 °C 11 °C 1002.0 hPa Calm     91% 0.0 mm 109 W/m2
16:35 12.5 °C 10.9 °C 1002.0 hPa Calm     90% 0.0 mm 104 W/m2
16:40 12.6 °C 11 °C 1002.0 hPa Calm   3.2 km/h 90% 0.0 mm 70 W/m2
16:45 12.6 °C 10.8 °C 1002.4 hPa ESE 1.4 km/h 1.6 km/h 89% 0.0 mm 58 W/m2
16:50 12.7 °C 10.9 °C 1002.4 hPa Calm     89% 0.0 mm 69 W/m2
16:55 12.6 °C 10.8 °C 1002.4 hPa Calm     89% 0.0 mm 72 W/m2
17:00 12.4 °C 10.5 °C 1002.4 hPa Calm   1.6 km/h 88% 0.0 mm 58 W/m2
17:05 12.3 °C 10.4 °C 1002.4 hPa Calm     88% 0.0 mm 54 W/m2
17:10 12.2 °C 10.3 °C 1002.4 hPa WNW 3.2 km/h 3.2 km/h 88% 0.0 mm 58 W/m2
17:15 12.1 °C 10 °C 1002.7 hPa SSW 1.4 km/h 4.8 km/h 87% 0.0 mm 54 W/m2
17:20 12 °C 9.9 °C 1002.7 hPa SSE 1.4 km/h 3.2 km/h 87% 0.0 mm 39 W/m2
17:25 11.9 °C 9.8 °C 1002.7 hPa Calm   3.2 km/h 87% 0.0 mm 25 W/m2
17:30 11.7 °C 9.6 °C 1002.7 hPa SSE 1.4 km/h 1.6 km/h 87% 0.0 mm 21 W/m2
17:35 11.6 °C 9.7 °C 1003.0 hPa Calm   1.6 km/h 88% 0.0 mm 18 W/m2
17:40 11.4 °C 9.5 °C 1003.0 hPa Calm     88% 0.0 mm 14 W/m2
17:45 11.3 °C 9.6 °C 1003.0 hPa Calm     89% 0.0 mm 16 W/m2
17:50 11.3 °C 9.6 °C 1003.0 hPa SSE 1.4 km/h 1.6 km/h 89% 0.2 mm 23 W/m2
17:55 11.2 °C 9.6 °C 1003.0 hPa Calm     90% 0.5 mm 25 W/m2
18:00 11.1 °C 9.5 °C 1003.4 hPa Calm     90% 0.5 mm 21 W/m2
18:05 11.1 °C 9.7 °C 1003.0 hPa Calm     91% 0.8 mm 25 W/m2
18:10 11 °C 9.6 °C 1003.0 hPa Calm     91% 1.0 mm 33 W/m2
18:15 10.9 °C 9.5 °C 1003.0 hPa Calm     91% 1.0 mm 39 W/m2
18:20 10.9 °C 9.5 °C 1003.4 hPa Calm     91% 1.3 mm 26 W/m2
18:25 10.8 °C 9.4 °C 1003.4 hPa Calm     91% 1.3 mm 19 W/m2
18:30 10.7 °C 9.3 °C 1003.4 hPa Calm     91% 1.3 mm 16 W/m2
18:35 10.6 °C 9.2 °C 1003.4 hPa Calm   1.6 km/h 91% 1.3 mm 14 W/m2
18:40 10.5 °C 9.3 °C 1003.7 hPa SSE 1.4 km/h 1.6 km/h 92% 1.3 mm 14 W/m2
18:45 10.4 °C 9.2 °C 1003.7 hPa Calm     92% 1.3 mm 16 W/m2
18:50 10.3 °C 9.1 °C 1003.7 hPa Calm     92% 1.0 mm 18 W/m2
18:55 10.2 °C 9 °C 1003.7 hPa Calm     92% 0.5 mm 21 W/m2
19:00 10.1 °C 8.9 °C 1003.7 hPa Calm     92% 0.5 mm 25 W/m2
19:05 9.9 °C 8.7 °C 1004.1 hPa Calm     92% 0.5 mm 16 W/m2
19:10 9.8 °C 8.6 °C 1003.7 hPa Calm   1.6 km/h 92% 0.2 mm 14 W/m2
19:15 9.7 °C 8.5 °C 1003.7 hPa Calm     92% 0.2 mm 9 W/m2
19:20 9.6 °C 8.5 °C 1004.1 hPa Calm   1.6 km/h 93% 0.0 mm 12 W/m2
19:25 9.5 °C 8.3 °C 1004.1 hPa SSE 1.4 km/h 1.6 km/h 92% 0.0 mm 7 W/m2
19:30 9.4 °C 8.3 °C 1004.1 hPa Calm   1.6 km/h 93% 0.0 mm 0 W/m2
19:35 9.2 °C 8.1 °C 1004.1 hPa Calm   1.6 km/h 93% 0.0 mm 0 W/m2
19:40 9.1 °C 7.9 °C 1004.1 hPa Calm   1.6 km/h 92% 0.0 mm 0 W/m2
19:45 8.9 °C 7.8 °C 1004.1 hPa Calm   1.6 km/h 93% 0.0 mm 0 W/m2
19:50 8.8 °C 7.7 °C 1004.1 hPa Calm   1.6 km/h 93% 0.0 mm 0 W/m2
19:55 8.6 °C 7.5 °C 1004.4 hPa SSE 1.4 km/h 3.2 km/h 93% 0.0 mm 0 W/m2
20:00 8.4 °C 7.2 °C 1004.4 hPa Calm   3.2 km/h 92% 0.0 mm 0 W/m2
20:05 8.3 °C 7.2 °C 1004.4 hPa Calm     93% 0.0 mm 0 W/m2
20:10 8.2 °C 7.1 °C 1004.4 hPa Calm   3.2 km/h 93% 0.0 mm 0 W/m2
20:15 8.1 °C 7 °C 1004.4 hPa Calm   1.6 km/h 93% 0.0 mm 0 W/m2
20:20 8.1 °C 7 °C 1004.4 hPa Calm     93% 0.0 mm 0 W/m2
20:25 8 °C 6.9 °C 1004.4 hPa Calm   1.6 km/h 93% 0.0 mm 0 W/m2
20:30 7.9 °C 6.8 °C 1004.4 hPa South 1.4 km/h 3.2 km/h 93% 0.0 mm 0 W/m2
20:35 7.8 °C 6.7 °C 1004.4 hPa Calm   1.6 km/h 93% 0.0 mm 0 W/m2
20:40 7.8 °C 6.9 °C 1004.7 hPa South 1.4 km/h 1.6 km/h 94% 0.0 mm 0 W/m2
20:45 7.7 °C 6.8 °C 1004.7 hPa Calm   3.2 km/h 94% 0.0 mm 0 W/m2
20:50 7.6 °C 6.7 °C 1004.7 hPa Calm     94% 0.0 mm 0 W/m2
20:55 7.6 °C 6.7 °C 1004.7 hPa Calm   3.2 km/h 94% 0.0 mm 0 W/m2
21:00 7.4 °C 6.5 °C 1004.7 hPa Calm     94% 0.0 mm 0 W/m2
21:05 7.4 °C 6.5 °C 1004.7 hPa Calm     94% 0.0 mm 0 W/m2
21:10 7.3 °C 6.4 °C 1004.7 hPa Calm     94% 0.0 mm 0 W/m2
21:15 7.2 °C 6.3 °C 1005.1 hPa Calm     94% 0.0 mm 0 W/m2
21:20 7.2 °C 6.3 °C 1005.1 hPa Calm     94% 0.0 mm 0 W/m2
21:25 7.1 °C 6.2 °C 1005.1 hPa Calm     94% 0.0 mm 0 W/m2
21:30 7 °C 6.1 °C 1005.4 hPa South 1.4 km/h 3.2 km/h 94% 0.0 mm 0 W/m2
21:35 6.9 °C 6 °C 1005.4 hPa Calm   1.6 km/h 94% 0.0 mm 0 W/m2
21:41 6.8 °C 5.9 °C 1005.4 hPa South 1.4 km/h 1.6 km/h 94% 0.0 mm 0 W/m2
21:46 6.8 °C 5.9 °C 1005.8 hPa Calm   1.6 km/h 94% 0.0 mm 0 W/m2
21:51 6.7 °C 5.8 °C 1005.8 hPa Calm   1.6 km/h 94% 0.0 mm 0 W/m2
21:56 6.7 °C 5.8 °C 1005.8 hPa Calm     94% 0.0 mm 0 W/m2
22:01 6.6 °C 5.7 °C 1005.8 hPa Calm   1.6 km/h 94% 0.0 mm 0 W/m2
22:06 6.6 °C 5.7 °C 1005.8 hPa Calm     94% 0.0 mm 0 W/m2
22:11 6.6 °C 5.9 °C 1006.1 hPa Calm     95% 0.0 mm 0 W/m2
22:16 6.5 °C 5.8 °C 1005.8 hPa Calm     95% 0.0 mm 0 W/m2
22:21 6.4 °C 5.5 °C 1006.1 hPa Calm     94% 0.0 mm 0 W/m2
22:26 6.4 °C 5.5 °C 1006.1 hPa Calm     94% 0.0 mm 0 W/m2
22:31 6.4 °C 5.7 °C 1006.1 hPa Calm   1.6 km/h 95% 0.0 mm 0 W/m2
22:36 6.4 °C 5.7 °C 1006.1 hPa Calm     95% 0.0 mm 0 W/m2
22:41 6.4 °C 5.7 °C 1006.1 hPa Calm   1.6 km/h 95% 0.0 mm 0 W/m2
22:46 6.4 °C 5.7 °C 1006.4 hPa Calm     95% 0.0 mm 0 W/m2
22:51 6.3 °C 5.6 °C 1006.4 hPa Calm     95% 0.0 mm 0 W/m2
22:56 6.3 °C 5.6 °C 1006.4 hPa Calm     95% 0.0 mm 0 W/m2
23:01 6.3 °C 5.6 °C 1006.4 hPa Calm     95% 0.0 mm 0 W/m2
23:06 6.3 °C 5.6 °C 1006.4 hPa Calm     95% 0.0 mm 0 W/m2
23:11 6.3 °C 5.6 °C 1006.4 hPa Calm   1.6 km/h 95% 0.0 mm 0 W/m2
23:16 6.3 °C 5.6 °C 1006.4 hPa Calm     95% 0.0 mm 0 W/m2
23:21 6.3 °C 5.6 °C 1006.4 hPa Calm     95% 0.0 mm 0 W/m2
23:26 6.4 °C 5.7 °C 1006.4 hPa Calm     95% 0.0 mm 0 W/m2
23:31 6.4 °C 5.7 °C 1006.8 hPa Calm     95% 0.0 mm 0 W/m2
23:36 6.3 °C 5.6 °C 1006.8 hPa Calm     95% 0.0 mm 0 W/m2
23:41 6.2 °C 5.5 °C 1006.8 hPa Calm     95% 0.0 mm 0 W/m2
23:46 6.1 °C 5.4 °C 1006.8 hPa Calm     95% 0.0 mm 0 W/m2
23:51 6.1 °C 5.4 °C 1006.8 hPa Calm     95% 0.0 mm 0 W/m2
23:56 5.9 °C 5.2 °C 1006.8 hPa Calm     95% 0.0 mm 0 W/m2
Juneau County Weather
Compliments of Weather Underground - 4 mb